Time;durP1;ratioP1;P1;durP2;ratioP2;P2;SDS_P1;SDS_P2;PMS_P1;PMS_P2;Temp;Humidity;BMP_temperature;BMP_pressure;BME280_temperature;BME280_humidity;BME280_pressure;Samples;Min_cycle;Max_cycle;Signal;HPM_P1;HPM_P2
2023/06/24 00:01:15;;;;;;;7.10;5.18;;;;;;;17.21;60.30;96484.88;4985198;28;20650;-83
2023/06/24 00:03:40;;;;;;;7.55;5.00;;;;;;;17.23;60.67;96490.00;4991330;28;20258;-83
2023/06/24 00:06:07;;;;;;;5.28;4.75;;;;;;;17.19;60.38;96488.66;4998031;28;20187;-82
2023/06/24 00:08:34;;;;;;;7.15;4.93;;;;;;;17.16;60.43;96483.75;5019029;28;20180;-83
2023/06/24 00:11:02;;;;;;;5.53;4.75;;;;;;;17.17;60.08;96477.53;5014113;28;20188;-83
2023/06/24 00:13:28;;;;;;;5.93;4.80;;;;;;;17.16;60.07;96486.38;5012513;28;20234;-83
2023/06/24 00:15:54;;;;;;;5.80;5.00;;;;;;;17.14;59.91;96483.09;5013876;28;20204;-83
2023/06/24 00:18:19;;;;;;;5.40;4.88;;;;;;;17.10;59.74;96479.16;5018598;28;20191;-83
2023/06/24 00:20:44;;;;;;;4.45;4.05;;;;;;;17.12;59.70;96488.50;5016316;28;20204;-83
2023/06/24 00:23:14;;;;;;;5.15;4.20;;;;;;;17.07;59.94;96482.94;5018910;28;20206;-83
2023/06/24 00:25:39;;;;;;;5.22;4.72;;;;;;;17.07;59.89;96485.56;5015613;28;20195;-83
2023/06/24 00:28:05;;;;;;;5.20;4.70;;;;;;;17.05;60.09;96478.84;5009316;28;20267;-83
2023/06/24 00:30:30;;;;;;;6.10;4.97;;;;;;;17.01;59.91;96477.53;5031931;28;20212;-83
2023/06/24 00:32:55;;;;;;;5.85;4.60;;;;;;;17.07;59.91;96474.25;4997185;28;20193;-82
2023/06/24 00:35:21;;;;;;;5.50;4.30;;;;;;;17.04;59.86;96472.75;5000441;28;20212;-81
2023/06/24 00:37:47;;;;;;;4.95;4.40;;;;;;;17.00;59.64;96476.72;4991628;28;20203;-82
2023/06/24 00:40:15;;;;;;;5.65;4.85;;;;;;;16.93;59.80;96476.56;4996391;28;20247;-82
2023/06/24 00:42:41;;;;;;;6.15;4.70;;;;;;;16.91;60.33;96480.31;4985156;28;20615;-84
2023/06/24 00:45:08;;;;;;;5.22;4.60;;;;;;;16.90;60.31;96481.31;4994873;28;20204;-82
2023/06/24 00:47:34;;;;;;;5.13;4.63;;;;;;;16.91;60.18;96478.53;4995769;28;20183;-83
2023/06/24 00:49:59;;;;;;;5.80;4.72;;;;;;;16.95;60.35;96479.00;4995686;28;20195;-82
2023/06/24 00:52:25;;;;;;;6.22;4.78;;;;;;;16.98;59.91;96473.44;4999240;28;20173;-84
2023/06/24 00:54:50;;;;;;;5.13;4.63;;;;;;;16.96;60.33;96475.38;5023456;28;20227;-82
2023/06/24 00:57:17;;;;;;;5.68;4.90;;;;;;;16.96;60.15;96480.63;5013633;28;20195;-81
2023/06/24 00:59:44;;;;;;;7.13;5.30;;;;;;;16.93;60.50;96480.97;4987304;28;20680;-82
2023/06/24 01:02:09;;;;;;;5.88;5.05;;;;;;;16.87;60.41;96479.00;4993704;28;20194;-82
2023/06/24 01:04:36;;;;;;;6.38;4.90;;;;;;;16.85;60.49;96476.53;4990976;28;20204;-82
2023/06/24 01:07:01;;;;;;;4.75;4.35;;;;;;;16.79;60.79;96485.09;4998053;28;20196;-82
2023/06/24 01:09:27;;;;;;;6.90;5.07;;;;;;;16.63;61.79;96483.22;4992435;28;20648;-82
2023/06/24 01:11:53;;;;;;;5.25;4.75;;;;;;;16.68;61.93;96477.50;4980246;28;20180;-81
2023/06/24 01:14:19;;;;;;;5.15;4.65;;;;;;;16.75;61.65;96488.19;4989437;28;20753;-82
2023/06/24 01:17:07;;;;;;;5.85;5.25;;;;;;;16.55;62.95;96477.16;4993584;28;20195;-81
2023/06/24 01:19:51;;;;;;;7.28;5.30;;;;;;;16.64;62.43;96468.31;4998995;28;20284;-82
2023/06/24 01:22:25;;;;;;;5.63;5.13;;;;;;;16.58;62.34;96475.03;4992237;28;20596;-82
2023/06/24 01:25:15;;;;;;;8.73;5.35;;;;;;;16.48;63.38;96476.16;4969262;28;20795;-82
2023/06/24 01:27:53;;;;;;;6.78;5.60;;;;;;;16.54;63.15;96475.53;5006974;28;20198;-82
2023/06/24 01:30:41;;;;;;;7.10;5.45;;;;;;;16.59;62.70;96466.16;4991968;28;20192;-82
2023/06/24 01:33:09;;;;;;;5.68;4.78;;;;;;;16.60;62.53;96465.19;4976102;28;20188;-82
2023/06/24 01:35:35;;;;;;;6.13;5.53;;;;;;;16.59;62.80;96457.47;4992229;28;20230;-83
2023/06/24 01:38:08;;;;;;;6.05;5.45;;;;;;;16.59;63.07;96458.31;4991477;28;20462;-83
2023/06/24 01:40:40;;;;;;;5.80;5.30;;;;;;;16.58;62.89;96466.34;4992311;28;20238;-82
2023/06/24 01:43:06;;;;;;;5.78;5.18;;;;;;;16.56;63.28;96452.56;4990353;28;20748;-83
2023/06/24 01:45:42;;;;;;;5.40;4.90;;;;;;;16.57;63.04;96455.03;4992168;28;20187;-82
2023/06/24 01:48:13;;;;;;;5.70;5.15;;;;;;;16.50;63.63;96450.59;4980393;28;20194;-82
2023/06/24 01:50:44;;;;;;;6.50;5.00;;;;;;;16.46;63.94;96455.34;4990532;28;20187;-83
2023/06/24 01:53:13;;;;;;;7.07;5.47;;;;;;;16.38;64.12;96450.91;4991824;28;20184;-83
2023/06/24 01:55:41;;;;;;;6.78;5.63;;;;;;;16.29;64.89;96448.44;4993547;28;20203;-83
2023/06/24 01:58:07;;;;;;;5.75;5.15;;;;;;;16.27;64.86;96455.66;4989642;28;20195;-83
2023/06/24 02:00:34;;;;;;;7.13;5.93;;;;;;;16.31;64.89;96449.91;4987360;28;20271;-83
2023/06/24 02:02:59;;;;;;;6.20;5.45;;;;;;;16.33;64.97;96452.38;4991730;28;20565;-83
2023/06/24 02:05:25;;;;;;;6.15;5.47;;;;;;;16.35;64.92;96453.88;4976057;28;20195;-83
2023/06/24 02:07:52;;;;;;;6.57;5.93;;;;;;;16.34;64.96;96457.47;4992661;28;20191;-83
2023/06/24 02:10:18;;;;;;;6.13;5.35;;;;;;;16.36;64.75;96455.50;4993711;28;20249;-84
2023/06/24 02:12:46;;;;;;;6.53;5.93;;;;;;;16.29;65.21;96445.81;4987051;28;20247;-84
2023/06/24 02:15:12;;;;;;;6.55;5.40;;;;;;;16.31;65.19;96447.28;5011080;28;20272;-83
2023/06/24 02:17:38;;;;;;;6.20;5.60;;;;;;;16.30;65.39;96448.28;5011923;28;20184;-83
2023/06/24 02:20:06;;;;;;;8.45;5.90;;;;;;;16.27;65.21;96437.31;5015285;28;20176;-84
2023/06/24 02:22:32;;;;;;;9.55;5.75;;;;;;;16.25;65.34;96441.88;5005272;28;20176;-84
2023/06/24 02:24:57;;;;;;;6.45;5.85;;;;;;;16.18;65.95;96444.34;5004891;28;20307;-84
2023/06/24 02:27:23;;;;;;;5.78;5.28;;;;;;;16.13;66.30;96444.78;4994867;28;20274;-84
2023/06/24 02:29:49;;;;;;;5.63;5.13;;;;;;;16.11;66.03;96449.38;4995163;28;20194;-84
2023/06/24 02:32:14;;;;;;;6.22;5.63;;;;;;;16.01;66.89;96448.72;4994276;28;20216;-84
2023/06/24 02:34:40;;;;;;;5.88;5.38;;;;;;;15.99;66.92;96441.97;4995089;28;20323;-83
2023/06/24 02:37:05;;;;;;;6.32;5.72;;;;;;;15.97;67.01;96447.38;4994769;28;20188;-84
2023/06/24 02:39:30;;;;;;;8.15;5.90;;;;;;;15.91;67.17;96445.41;4993999;28;20239;-84
2023/06/24 02:41:56;;;;;;;6.53;5.32;;;;;;;15.92;67.12;96439.19;4978177;28;20188;-83
2023/06/24 02:44:21;;;;;;;6.22;5.57;;;;;;;15.90;67.28;96441.13;4992618;28;20215;-83
2023/06/24 02:46:47;;;;;;;7.70;6.45;;;;;;;15.87;67.16;96436.22;4993333;28;20187;-83
2023/06/24 02:49:15;;;;;;;5.72;5.22;;;;;;;15.84;67.24;96439.16;4993116;28;20182;-83
2023/06/24 02:51:41;;;;;;;6.45;5.82;;;;;;;15.82;67.60;96448.97;4993178;28;20184;-83
2023/06/24 02:54:07;;;;;;;8.00;5.57;;;;;;;15.90;67.17;96443.75;4982803;28;20212;-84
2023/06/24 02:56:32;;;;;;;6.82;5.55;;;;;;;15.90;66.93;96433.25;4990754;28;20200;-84
2023/06/24 02:58:57;;;;;;;6.05;5.53;;;;;;;15.89;66.99;96434.25;4993075;28;20187;-83
2023/06/24 03:01:25;;;;;;;6.22;5.30;;;;;;;15.89;66.94;96433.41;4992477;28;20526;-83
2023/06/24 03:03:53;;;;;;;5.72;5.20;;;;;;;15.86;67.12;96432.78;4991346;28;20896;-84
2023/06/24 03:06:18;;;;;;;6.68;6.05;;;;;;;15.88;67.25;96439.66;5002448;28;20184;-83
2023/06/24 03:08:45;;;;;;;7.63;5.70;;;;;;;15.83;67.43;96445.38;4993349;28;20188;-83
2023/06/24 03:11:13;;;;;;;7.15;6.45;;;;;;;15.75;68.53;96434.88;4992255;28;20196;-84
2023/06/24 03:13:38;;;;;;;7.05;5.53;;;;;;;15.81;67.96;96442.06;4992876;28;20227;-84
2023/06/24 03:16:04;;;;;;;6.57;5.97;;;;;;;15.80;67.94;96445.66;4993066;28;20208;-83
2023/06/24 03:18:29;;;;;;;8.10;6.32;;;;;;;15.77;68.17;96444.19;4991413;28;20184;-83
2023/06/24 03:20:54;;;;;;;7.93;6.15;;;;;;;15.79;68.40;96452.72;4979183;28;20741;-83
2023/06/24 03:23:20;;;;;;;6.53;5.88;;;;;;;15.74;68.57;96454.19;4995575;28;20208;-82
2023/06/24 03:25:45;;;;;;;5.78;5.28;;;;;;;15.68;68.12;96457.41;4988328;28;20732;-83
2023/06/24 03:28:10;;;;;;;6.18;5.57;;;;;;;15.67;68.58;96453.97;4988358;28;20211;-83
2023/06/24 03:30:36;;;;;;;7.18;5.55;;;;;;;15.81;67.64;96449.94;5012410;28;20188;-83
2023/06/24 03:33:01;;;;;;;7.85;5.88;;;;;;;15.78;68.30;96450.25;4992755;28;20548;-83
2023/06/24 03:35:27;;;;;;;5.90;5.30;;;;;;;15.71;69.20;96457.91;4991978;28;20572;-84
2023/06/24 03:37:52;;;;;;;6.43;5.35;;;;;;;15.97;67.89;96457.03;4995721;28;20179;-84
2023/06/24 03:40:18;;;;;;;5.93;5.32;;;;;;;15.97;68.21;96451.78;4982806;28;20570;-84
2023/06/24 03:42:43;;;;;;;6.90;5.25;;;;;;;16.47;65.84;96457.00;4991410;28;20180;-83
2023/06/24 03:45:09;;;;;;;6.68;5.18;;;;;;;17.18;63.68;96461.59;4986493;28;20203;-83
2023/06/24 03:47:34;;;;;;;6.10;5.43;;;;;;;17.89;61.04;96461.78;4979946;28;20188;-82
2023/06/24 03:49:59;;;;;;;5.95;5.35;;;;;;;18.01;59.23;96470.91;4988449;28;20204;-82
2023/06/24 03:52:25;;;;;;;6.85;5.45;;;;;;;18.50;57.67;96468.03;4987917;28;20188;-83
2023/06/24 03:54:50;;;;;;;5.85;5.30;;;;;;;19.17;55.31;96478.72;5012172;28;20192;-82
2023/06/24 03:57:16;;;;;;;6.93;4.80;;;;;;;19.60;54.01;96485.06;5002093;28;20192;-83
2023/06/24 03:59:41;;;;;;;5.28;4.60;;;;;;;20.31;51.29;96485.38;4998665;28;20192;-82
2023/06/24 04:02:09;;;;;;;6.30;4.90;;;;;;;20.50;50.55;96486.66;4989382;28;20183;-82
2023/06/24 04:04:35;;;;;;;6.55;5.40;;;;;;;20.81;50.41;96486.34;4988109;28;20208;-82
2023/06/24 04:07:01;;;;;;;5.15;4.60;;;;;;;20.14;51.40;96482.13;4994881;28;20278;-82
2023/06/24 04:09:26;;;;;;;5.70;4.85;;;;;;;20.11;51.47;96481.69;5012114;28;20673;-82
2023/06/24 04:11:51;;;;;;;4.90;4.50;;;;;;;20.51;50.61;96483.84;4991419;28;20285;-83
2023/06/24 04:14:17;;;;;;;5.55;4.60;;;;;;;21.18;48.88;96488.72;4991894;28;20290;-83
2023/06/24 04:16:42;;;;;;;5.47;4.55;;;;;;;21.31;48.94;96490.69;4984053;28;20216;-83
2023/06/24 04:19:07;;;;;;;5.80;4.63;;;;;;;21.46;48.77;96501.97;4994641;28;20191;-82
2023/06/24 04:21:33;;;;;;;4.90;4.45;;;;;;;21.40;48.36;96500.09;4994143;28;20191;-82
2023/06/24 04:23:58;;;;;;;4.63;4.22;;;;;;;21.25;49.25;96491.41;4991330;28;20208;-83
2023/06/24 04:26:23;;;;;;;5.03;4.53;;;;;;;21.84;46.77;96506.09;4994996;28;20207;-80
2023/06/24 04:28:49;;;;;;;5.60;4.75;;;;;;;21.42;48.28;96505.19;4992937;28;20214;-83
2023/06/24 04:31:14;;;;;;;4.60;4.20;;;;;;;21.20;48.79;96502.56;4989088;28;20216;-82
2023/06/24 04:33:39;;;;;;;5.35;4.63;;;;;;;21.70;48.57;96503.34;4985365;28;20220;-83
2023/06/24 04:36:05;;;;;;;5.10;4.70;;;;;;;22.61;45.90;96504.00;4994234;28;20200;-81
2023/06/24 04:38:30;;;;;;;4.60;4.20;;;;;;;22.54;46.43;96503.19;4993230;28;20705;-82
2023/06/24 04:40:57;;;;;;;4.72;4.28;;;;;;;22.38;47.07;96505.34;4997889;28;20226;-82
2023/06/24 04:43:22;;;;;;;4.78;4.32;;;;;;;22.32;46.56;96518.34;4994431;28;20250;-83
2023/06/24 04:45:47;;;;;;;5.00;4.13;;;;;;;22.82;45.86;96510.97;4995026;28;20176;-83
2023/06/24 04:48:13;;;;;;;6.78;4.40;;;;;;;23.14;45.51;96511.25;4988873;28;20207;-84
2023/06/24 04:50:38;;;;;;;5.40;4.90;;;;;;;23.89;43.68;96522.47;5012143;28;20210;-85
2023/06/24 04:53:04;;;;;;;5.00;4.50;;;;;;;23.24;44.32;96521.47;4992999;28;20194;-84
2023/06/24 04:55:29;;;;;;;5.10;4.70;;;;;;;23.77;43.88;96519.63;4998091;28;20283;-86
2023/06/24 04:57:55;;;;;;;4.78;4.38;;;;;;;24.19;43.10;96512.16;4988262;28;20195;-88
2023/06/24 05:00:22;;;;;;;4.60;4.18;;;;;;;23.99;43.44;96515.69;4986444;28;20203;-85
2023/06/24 05:02:48;;;;;;;4.57;4.18;;;;;;;24.56;41.92;96515.94;4985238;28;20187;-85
2023/06/24 05:05:13;;;;;;;6.68;4.47;;;;;;;25.94;39.56;96521.28;4987827;28;20200;-86
2023/06/24 05:07:39;;;;;;;4.53;4.13;;;;;;;26.77;38.28;96520.75;4974039;28;20231;-88
2023/06/24 05:10:05;;;;;;;4.80;4.40;;;;;;;27.20;37.59;96525.88;4984485;28;20184;-84
2023/06/24 05:12:30;;;;;;;6.13;4.38;;;;;;;27.21;36.90;96524.03;4956962;28;20729;-85
2023/06/24 05:14:56;;;;;;;4.20;3.80;;;;;;;27.09;36.64;96527.47;4994399;28;20246;-84
2023/06/24 05:17:21;;;;;;;4.63;3.78;;;;;;;27.87;35.87;96529.13;4988209;28;20179;-85
2023/06/24 05:19:46;;;;;;;4.65;4.07;;;;;;;27.70;35.96;96530.03;4992432;28;20230;-84
2023/06/24 05:22:12;;;;;;;5.18;4.43;;;;;;;27.33;36.40;96536.34;4995959;28;20210;-85
2023/06/24 05:24:37;;;;;;;4.95;4.30;;;;;;;28.38;35.16;96537.44;4996532;28;20266;-85
2023/06/24 05:27:07;;;;;;;4.25;3.95;;;;;;;29.13;34.02;96536.47;5010544;28;20184;-85
2023/06/24 05:29:33;;;;;;;5.50;4.60;;;;;;;29.11;32.99;96538.59;4992978;28;20199;-85
2023/06/24 05:32:01;;;;;;;5.22;4.15;;;;;;;29.22;33.54;96540.38;4995822;28;20650;-86
2023/06/24 05:34:27;;;;;;;4.47;4.07;;;;;;;30.21;32.43;96547.84;4996568;28;20250;-86
2023/06/24 05:36:53;;;;;;;6.07;4.03;;;;;;;30.92;30.58;96549.56;4995528;28;20673;-86
2023/06/24 05:39:19;;;;;;;4.60;4.20;;;;;;;30.78;30.05;96550.19;4993285;28;20194;-86
2023/06/24 05:41:45;;;;;;;5.05;4.47;;;;;;;30.10;30.28;96542.34;4995167;28;20184;-86
2023/06/24 05:44:10;;;;;;;4.32;3.92;;;;;;;29.89;30.55;96543.91;4991786;28;20239;-87
2023/06/24 05:46:36;;;;;;;5.30;4.80;;;;;;;31.12;28.91;96546.28;5005993;28;20179;-86
2023/06/24 05:49:01;;;;;;;4.20;3.88;;;;;;;33.19;26.47;96555.09;5001404;28;20192;-86
2023/06/24 05:51:27;;;;;;;4.88;4.47;;;;;;;30.81;28.63;96552.38;4968195;28;20225;-86
2023/06/24 05:53:52;;;;;;;4.95;3.97;;;;;;;32.96;26.53;96551.81;4962714;28;20204;-86
2023/06/24 05:56:18;;;;;;;4.93;4.53;;;;;;;32.22;26.97;96559.25;4993226;28;20196;-88
2023/06/24 05:58:43;;;;;;;4.95;4.55;;;;;;;32.05;26.81;96562.09;4978959;28;20191;-87
2023/06/24 06:01:11;;;;;;;5.00;4.60;;;;;;;32.00;26.34;96556.72;4994521;28;20183;-86
2023/06/24 06:03:37;;;;;;;4.00;3.70;;;;;;;34.92;23.40;96558.38;4991213;28;20273;-86
2023/06/24 06:06:03;;;;;;;5.07;4.43;;;;;;;32.24;26.07;96557.91;5003981;28;20172;-86
2023/06/24 06:08:28;;;;;;;5.35;4.65;;;;;;;33.07;25.99;96562.59;4986745;28;20184;-87
2023/06/24 06:10:53;;;;;;;5.00;4.50;;;;;;;32.71;26.19;96562.47;4994057;28;20187;-86
2023/06/24 06:13:19;;;;;;;5.22;4.30;;;;;;;32.80;26.44;96555.50;4980572;28;20218;-84
2023/06/24 06:15:44;;;;;;;4.95;4.55;;;;;;;32.28;26.80;96553.66;4977599;28;20572;-84
2023/06/24 06:18:09;;;;;;;4.60;4.20;;;;;;;33.02;25.70;96562.59;4986120;28;20239;-82
2023/06/24 06:20:35;;;;;;;4.65;4.25;;;;;;;33.60;25.13;96555.16;4994085;28;20191;-83
2023/06/24 06:23:00;;;;;;;4.40;3.97;;;;;;;35.60;22.46;96563.06;4984315;28;20198;-82
2023/06/24 06:25:25;;;;;;;6.35;4.45;;;;;;;34.40;24.30;96566.94;4980584;28;20177;-82
2023/06/24 06:27:51;;;;;;;7.28;4.65;;;;;;;35.29;22.90;96564.38;4988427;28;20196;-85
2023/06/24 06:30:16;;;;;;;5.68;5.05;;;;;;;33.13;25.66;96559.66;4994148;28;20195;-82
2023/06/24 06:32:41;;;;;;;5.65;5.07;;;;;;;31.52;27.57;96561.16;4996258;28;20214;-85
2023/06/24 06:35:07;;;;;;;4.32;4.03;;;;;;;32.46;26.98;96557.78;4981128;28;20208;-84
2023/06/24 06:37:33;;;;;;;5.00;4.50;;;;;;;33.17;25.45;96555.34;5006568;28;20273;-83
2023/06/24 06:39:58;;;;;;;5.60;4.60;;;;;;;34.04;24.47;96558.09;4991047;28;20184;-84
2023/06/24 06:42:24;;;;;;;4.90;4.50;;;;;;;33.65;24.57;96555.94;5008305;28;20184;-82
2023/06/24 06:44:49;;;;;;;5.20;4.70;;;;;;;33.60;25.05;96558.66;4993174;28;20690;-79
2023/06/24 06:47:14;;;;;;;5.45;4.10;;;;;;;33.78;24.65;96554.59;4997229;28;20214;-78
2023/06/24 06:49:40;;;;;;;7.05;4.80;;;;;;;33.50;24.90;96547.88;4997304;28;20657;-79
2023/06/24 06:52:07;;;;;;;4.70;4.30;;;;;;;34.74;23.75;96564.38;4994333;28;20305;-85
2023/06/24 06:54:32;;;;;;;5.45;4.88;;;;;;;33.22;25.44;96551.88;4985482;28;20228;-79
2023/06/24 06:57:04;;;;;;;6.07;4.68;;;;;;;34.06;24.34;96564.03;5006378;28;20297;-83
2023/06/24 06:59:31;;;;;;;5.25;4.75;;;;;;;31.79;27.04;96559.25;4999836;28;20547;-83
2023/06/24 07:01:56;;;;;;;5.80;5.05;;;;;;;31.39;27.77;96554.34;4991362;28;20245;-83
2023/06/24 07:04:21;;;;;;;5.65;5.18;;;;;;;32.96;25.87;96565.28;5010155;28;20287;-83
2023/06/24 07:06:47;;;;;;;5.45;4.80;;;;;;;32.55;26.67;96555.41;4989040;28;20286;-83
2023/06/24 07:09:12;;;;;;;5.10;4.63;;;;;;;33.41;24.98;96554.88;4998460;28;20272;-82
2023/06/24 07:11:37;;;;;;;6.72;5.22;;;;;;;34.20;24.24;96561.59;4990975;28;20184;-83
2023/06/24 07:14:02;;;;;;;5.35;4.95;;;;;;;32.69;25.94;96559.25;5019316;28;20200;-82
2023/06/24 07:16:28;;;;;;;5.28;4.78;;;;;;;32.20;26.86;96556.81;5012850;28;20211;-83
2023/06/24 07:18:53;;;;;;;5.35;4.85;;;;;;;33.01;26.24;96572.53;4998261;28;20560;-79
2023/06/24 07:21:18;;;;;;;5.30;4.85;;;;;;;33.19;25.38;96553.19;4987355;28;20555;-80
2023/06/24 07:23:44;;;;;;;6.35;4.65;;;;;;;33.17;25.48;96559.94;4978787;28;20208;-80
2023/06/24 07:26:09;;;;;;;5.20;4.70;;;;;;;33.10;25.79;96551.28;4994956;28;20187;-83
2023/06/24 07:28:35;;;;;;;4.97;4.53;;;;;;;33.58;25.36;96554.63;4991183;28;20206;-82
2023/06/24 07:31:00;;;;;;;4.85;4.45;;;;;;;32.33;26.97;96560.94;4992256;28;20556;-82
2023/06/24 07:33:26;;;;;;;5.15;4.32;;;;;;;32.42;26.67;96564.75;4994830;28;20219;-82
2023/06/24 07:35:51;;;;;;;4.63;4.22;;;;;;;31.38;27.35;96559.97;4995415;28;20212;-79
2023/06/24 07:38:16;;;;;;;5.28;4.60;;;;;;;31.99;26.25;96557.78;4995977;28;20195;-83
2023/06/24 07:40:42;;;;;;;5.82;4.72;;;;;;;31.42;27.77;96556.50;4994999;28;20274;-79
2023/06/24 07:43:07;;;;;;;4.57;4.18;;;;;;;31.39;28.04;96551.66;4995909;28;20252;-83
2023/06/24 07:45:32;;;;;;;5.75;4.72;;;;;;;31.83;26.85;96552.31;4983707;28;20195;-84
2023/06/24 07:47:58;;;;;;;4.50;4.10;;;;;;;32.90;25.06;96552.88;4993922;28;20207;-85
2023/06/24 07:50:24;;;;;;;4.82;4.30;;;;;;;32.37;25.50;96554.00;4997958;28;20568;-83
2023/06/24 07:52:49;;;;;;;4.88;4.47;;;;;;;30.35;28.78;96546.44;4997725;28;20645;-84
2023/06/24 07:55:14;;;;;;;4.80;4.22;;;;;;;29.69;29.28;96548.16;4996708;28;20266;-85
2023/06/24 07:57:40;;;;;;;5.47;3.90;;;;;;;30.34;28.10;96553.66;5013924;28;20657;-85
2023/06/24 08:00:09;;;;;;;4.63;4.15;;;;;;;30.89;27.57;96547.38;4997218;28;20242;-84
2023/06/24 08:02:35;;;;;;;5.20;4.68;;;;;;;30.78;27.37;96551.00;5002246;28;20180;-86
2023/06/24 08:05:00;;;;;;;4.28;3.88;;;;;;;31.37;26.58;96547.63;4996651;28;20207;-84
2023/06/24 08:07:25;;;;;;;4.22;3.83;;;;;;;30.56;27.21;96550.97;4995344;28;20188;-84
2023/06/24 08:09:51;;;;;;;4.82;3.70;;;;;;;29.53;28.68;96545.25;4988869;28;20194;-84
2023/06/24 08:12:16;;;;;;;4.13;3.80;;;;;;;29.83;28.17;96544.06;4996802;28;20190;-86
2023/06/24 08:14:41;;;;;;;3.50;3.20;;;;;;;30.01;26.11;96545.69;4993164;28;20223;-85
2023/06/24 08:17:07;;;;;;;4.15;3.65;;;;;;;29.83;26.59;96544.88;5009737;28;20258;-85
2023/06/24 08:19:32;;;;;;;3.90;3.60;;;;;;;29.43;28.30;96552.25;4987368;28;20206;-86
2023/06/24 08:21:57;;;;;;;4.03;3.53;;;;;;;29.52;27.58;96537.47;4982414;28;20223;-85
2023/06/24 08:24:23;;;;;;;3.60;3.30;;;;;;;28.97;27.21;96540.75;4977734;28;20247;-84
2023/06/24 08:26:48;;;;;;;4.75;3.13;;;;;;;29.10;26.89;96540.47;4984105;28;20548;-84
2023/06/24 08:29:13;;;;;;;4.20;3.22;;;;;;;29.38;28.35;96542.28;4993474;28;20177;-84
2023/06/24 08:31:39;;;;;;;4.25;3.85;;;;;;;28.96;29.33;96534.59;4992933;28;20180;-84
2023/06/24 08:34:06;;;;;;;4.15;3.80;;;;;;;28.58;28.02;96542.38;4990025;28;20768;-84
2023/06/24 08:36:31;;;;;;;4.30;3.67;;;;;;;28.03;30.36;96529.47;4980827;28;20227;-85
2023/06/24 08:38:57;;;;;;;4.13;3.33;;;;;;;28.85;28.80;96532.75;4996997;28;20179;-85
2023/06/24 08:41:22;;;;;;;4.68;4.05;;;;;;;28.37;29.94;96541.97;4990494;28;20196;-85
2023/06/24 08:43:48;;;;;;;4.03;3.72;;;;;;;28.56;29.01;96539.94;4982873;28;20242;-86
2023/06/24 08:46:15;;;;;;;5.10;4.13;;;;;;;27.97;30.69;96538.41;4998641;28;20182;-84
2023/06/24 08:48:42;;;;;;;4.30;3.88;;;;;;;28.44;28.70;96529.28;4989305;28;20189;-87
2023/06/24 08:51:08;;;;;;;3.60;3.30;;;;;;;27.83;28.02;96535.13;4993197;28;20181;-84
2023/06/24 08:53:34;;;;;;;3.92;3.63;;;;;;;27.18;29.25;96538.63;4996442;28;20203;-85
2023/06/24 08:56:00;;;;;;;5.50;3.40;;;;;;;27.27;29.16;96536.44;4982344;28;20218;-86
2023/06/24 08:58:25;;;;;;;4.20;3.80;;;;;;;26.71;29.87;96533.13;4996952;28;20274;-85
2023/06/24 09:00:51;;;;;;;3.70;3.40;;;;;;;26.39;30.68;96529.81;4997043;28;20235;-85
2023/06/24 09:03:16;;;;;;;4.15;3.17;;;;;;;26.64;30.37;96529.72;4997028;28;20788;-85
2023/06/24 09:05:41;;;;;;;4.30;3.90;;;;;;;26.92;29.76;96529.13;4996017;28;20581;-86
2023/06/24 09:08:07;;;;;;;4.15;3.33;;;;;;;26.09;29.73;96532.41;4980097;28;20181;-84
2023/06/24 09:10:33;;;;;;;5.15;3.58;;;;;;;26.23;30.67;96528.53;4988442;28;20742;-88
2023/06/24 09:13:00;;;;;;;4.60;3.67;;;;;;;26.95;29.44;96533.22;4995781;28;20645;-85
2023/06/24 09:15:30;;;;;;;3.60;3.30;;;;;;;26.54;29.41;96527.59;4990033;28;20209;-86
2023/06/24 09:17:56;;;;;;;4.85;3.70;;;;;;;27.45;29.41;96530.22;4984174;28;20816;-85
2023/06/24 09:20:22;;;;;;;3.25;2.95;;;;;;;27.36;27.94;96519.88;4993930;28;20191;-86
2023/06/24 09:22:48;;;;;;;4.43;4.03;;;;;;;26.47;31.79;96516.19;4992292;28;20196;-87
2023/06/24 09:25:18;;;;;;;4.85;3.92;;;;;;;26.66;31.41;96519.66;4998171;28;20216;-87
2023/06/24 09:27:51;;;;;;;4.10;3.70;;;;;;;27.20;31.64;96523.22;4994289;28;20184;-86
2023/06/24 09:30:21;;;;;;;5.03;3.97;;;;;;;27.76;29.54;96516.59;4999170;28;20234;-84
2023/06/24 09:32:47;;;;;;;5.15;3.72;;;;;;;27.64;30.79;96515.72;4996768;28;20199;-86
2023/06/24 09:35:13;;;;;;;5.00;4.18;;;;;;;27.72;30.59;96512.75;4992778;28;20220;-86
2023/06/24 09:37:39;;;;;;;4.70;3.40;;;;;;;27.64;31.35;96511.22;4996083;28;20188;-84
2023/06/24 09:40:06;;;;;;;4.97;4.07;;;;;;;27.59;30.07;96507.63;4995998;28;20183;-85
2023/06/24 09:42:31;;;;;;;4.25;3.85;;;;;;;28.06;31.23;96512.97;4991399;28;20183;-85
2023/06/24 09:44:57;;;;;;;4.28;3.85;;;;;;;27.67;31.21;96501.97;4997049;28;20203;-85
2023/06/24 09:47:27;;;;;;;4.03;3.63;;;;;;;28.21;29.38;96508.75;5009247;28;20256;-85
2023/06/24 09:49:53;;;;;;;4.13;3.72;;;;;;;27.82;29.08;96499.63;4994403;28;20200;-86
2023/06/24 09:52:19;;;;;;;4.25;3.65;;;;;;;27.86;28.57;96489.31;4996251;28;20184;-86
2023/06/24 09:54:46;;;;;;;3.65;3.35;;;;;;;27.34;30.79;96494.50;4995986;28;20199;-85
2023/06/24 09:57:13;;;;;;;3.75;3.33;;;;;;;27.18;29.10;96497.81;4983225;28;20768;-85
2023/06/24 09:59:39;;;;;;;3.42;3.15;;;;;;;27.18;30.96;96489.81;5009519;28;20608;-86
2023/06/24 10:02:07;;;;;;;5.05;3.70;;;;;;;27.68;28.34;96500.94;4993117;28;20184;-86
2023/06/24 10:04:33;;;;;;;4.15;3.78;;;;;;;27.79;28.94;96497.44;4984558;28;20220;-85
2023/06/24 10:06:59;;;;;;;4.03;3.40;;;;;;;28.09;27.60;96493.78;4967412;28;20534;-85
2023/06/24 10:09:24;;;;;;;3.83;3.53;;;;;;;28.16;28.41;96487.28;4995531;28;20172;-86
2023/06/24 10:11:49;;;;;;;3.60;3.30;;;;;;;28.44;27.61;96477.72;4968325;28;20215;-85
2023/06/24 10:14:15;;;;;;;3.35;3.05;;;;;;;28.63;27.46;96475.69;5011431;28;20583;-85
2023/06/24 10:16:42;;;;;;;3.80;3.00;;;;;;;28.89;26.95;96474.25;4985474;28;20215;-85
2023/06/24 10:19:07;;;;;;;3.85;3.00;;;;;;;29.26;25.66;96480.84;5009437;28;20199;-85
2023/06/24 10:21:51;;;;;;;4.07;3.17;;;;;;;29.12;25.29;96476.03;4986518;28;20192;-86
2023/06/24 10:24:28;;;;;;;3.47;3.17;;;;;;;29.24;25.85;96471.41;4992437;28;20208;-84
2023/06/24 10:26:53;;;;;;;4.32;3.50;;;;;;;29.15;26.62;96472.88;4988651;28;20187;-85
2023/06/24 10:29:30;;;;;;;4.05;3.70;;;;;;;28.87;27.29;96466.50;4995451;28;20187;-85
2023/06/24 10:31:56;;;;;;;3.90;3.60;;;;;;;29.15;26.78;96465.66;4988173;28;20183;-86
2023/06/24 10:34:30;;;;;;;4.00;3.25;;;;;;;28.86;26.28;96462.19;4991652;28;20231;-86
2023/06/24 10:36:59;;;;;;;3.60;3.30;;;;;;;28.05;27.87;96464.09;4969082;28;20260;-86
2023/06/24 10:39:50;;;;;;;3.65;3.35;;;;;;;28.04;27.41;96462.47;4991698;28;20268;-86
2023/06/24 10:42:45;;;;;;;10.93;3.72;;;;;;;27.81;29.52;96451.84;4981603;28;20184;-84
2023/06/24 10:45:11;;;;;;;4.63;2.75;;;;;;;28.16;26.90;96443.75;4992787;28;20264;-86
2023/06/24 10:47:38;;;;;;;3.65;3.35;;;;;;;27.94;27.24;96451.59;4994251;28;20214;-85
2023/06/24 10:50:05;;;;;;;3.47;3.17;;;;;;;28.42;27.55;96447.75;4991461;28;20192;-87
2023/06/24 10:52:31;;;;;;;3.40;3.10;;;;;;;28.54;27.35;96443.19;4976749;28;20279;-85
2023/06/24 10:54:57;;;;;;;3.80;3.28;;;;;;;28.35;27.17;96437.22;4991120;28;20295;-86
2023/06/24 10:57:25;;;;;;;4.10;3.22;;;;;;;27.68;28.86;96431.56;4978970;28;20188;-86
2023/06/24 10:59:51;;;;;;;4.30;3.25;;;;;;;27.98;29.64;96434.03;5003339;28;20662;-85
2023/06/24 11:02:18;;;;;;;6.05;3.38;;;;;;;28.22;28.10;96427.59;4989758;28;20562;-84
2023/06/24 11:04:48;;;;;;;3.55;3.25;;;;;;;28.37;26.52;96435.13;4963417;28;20212;-84
2023/06/24 11:07:15;;;;;;;4.57;3.50;;;;;;;27.30;27.02;96432.00;4991352;28;20251;-84
2023/06/24 11:09:40;;;;;;;3.60;3.30;;;;;;;25.86;29.99;96425.78;4986970;28;20600;-85
2023/06/24 11:12:08;;;;;;;3.67;2.92;;;;;;;27.03;29.11;96428.94;4997821;28;20196;-85
2023/06/24 11:14:37;;;;;;;3.78;3.10;;;;;;;27.27;27.73;96425.25;4998047;28;20763;-85
2023/06/24 11:17:03;;;;;;;3.35;2.60;;;;;;;27.70;25.43;96423.31;4995499;28;20216;-85
2023/06/24 11:19:30;;;;;;;3.55;2.80;;;;;;;27.96;25.80;96422.00;4996595;28;20183;-84
2023/06/24 11:21:59;;;;;;;3.05;2.75;;;;;;;27.81;25.43;96425.16;4983959;28;20181;-85
2023/06/24 11:24:24;;;;;;;3.50;2.65;;;;;;;28.24;24.78;96414.00;4986310;28;20681;-85
2023/06/24 11:26:51;;;;;;;3.38;3.08;;;;;;;28.22;26.96;96418.78;4995730;28;20184;-85
2023/06/24 11:29:16;;;;;;;3.47;3.20;;;;;;;28.31;25.50;96413.91;4992412;28;20641;-84
2023/06/24 11:31:41;;;;;;;3.35;3.05;;;;;;;27.99;26.63;96411.63;4982879;28;20196;-84